sensor_id;sensor_type;location;lat;lon;timestamp;temperature;humidity
44671;DHT22;48397;53.016;-2.260;2023-05-07T00:01:46;13.60;99.90
44671;DHT22;48397;53.016;-2.260;2023-05-07T00:04:14;13.60;99.90
44671;DHT22;48397;53.016;-2.260;2023-05-07T00:06:42;13.60;99.90
44671;DHT22;48397;53.016;-2.260;2023-05-07T00:09:10;13.60;99.90
44671;DHT22;48397;53.016;-2.260;2023-05-07T00:11:38;13.60;99.90
44671;DHT22;48397;53.016;-2.260;2023-05-07T00:14:06;15.80;99.90
44671;DHT22;48397;53.016;-2.260;2023-05-07T00:16:33;13.60;99.90
44671;DHT22;48397;53.016;-2.260;2023-05-07T00:19:01;13.50;99.90
44671;DHT22;48397;53.016;-2.260;2023-05-07T00:21:29;13.60;99.90
44671;DHT22;48397;53.016;-2.260;2023-05-07T00:23:59;13.60;99.90
44671;DHT22;48397;53.016;-2.260;2023-05-07T00:26:27;13.60;99.90
44671;DHT22;48397;53.016;-2.260;2023-05-07T00:28:54;13.60;99.90
44671;DHT22;48397;53.016;-2.260;2023-05-07T00:31:22;13.60;99.90
44671;DHT22;48397;53.016;-2.260;2023-05-07T00:33:50;13.60;99.90
44671;DHT22;48397;53.016;-2.260;2023-05-07T00:36:20;13.50;99.90
44671;DHT22;48397;53.016;-2.260;2023-05-07T00:38:48;13.50;99.90
44671;DHT22;48397;53.016;-2.260;2023-05-07T00:41:16;13.60;99.90
44671;DHT22;48397;53.016;-2.260;2023-05-07T00:43:44;13.50;99.90
44671;DHT22;48397;53.016;-2.260;2023-05-07T00:46:13;13.60;99.90
44671;DHT22;48397;53.016;-2.260;2023-05-07T00:48:40;13.60;99.90
44671;DHT22;48397;53.016;-2.260;2023-05-07T00:51:09;13.60;99.90
44671;DHT22;48397;53.016;-2.260;2023-05-07T00:53:39;13.60;99.90
44671;DHT22;48397;53.016;-2.260;2023-05-07T00:56:07;13.60;99.90
44671;DHT22;48397;53.016;-2.260;2023-05-07T00:58:35;13.60;99.90
44671;DHT22;48397;53.016;-2.260;2023-05-07T01:01:03;13.60;99.90
44671;DHT22;48397;53.016;-2.260;2023-05-07T01:03:31;13.60;99.90
44671;DHT22;48397;53.016;-2.260;2023-05-07T01:06:00;13.60;99.90
44671;DHT22;48397;53.016;-2.260;2023-05-07T01:08:29;13.60;99.90
44671;DHT22;48397;53.016;-2.260;2023-05-07T01:10:58;13.60;99.90
44671;DHT22;48397;53.016;-2.260;2023-05-07T01:13:27;13.60;99.90
44671;DHT22;48397;53.016;-2.260;2023-05-07T01:15:56;13.70;99.90
44671;DHT22;48397;53.016;-2.260;2023-05-07T01:18:24;13.50;99.90
44671;DHT22;48397;53.016;-2.260;2023-05-07T01:20:54;13.60;99.90
44671;DHT22;48397;53.016;-2.260;2023-05-07T01:23:23;13.60;99.90
44671;DHT22;48397;53.016;-2.260;2023-05-07T01:25:55;13.60;99.90
44671;DHT22;48397;53.016;-2.260;2023-05-07T01:28:25;13.60;99.90
44671;DHT22;48397;53.016;-2.260;2023-05-07T01:31:00;13.60;99.90
44671;DHT22;48397;53.016;-2.260;2023-05-07T01:33:34;13.60;99.90
44671;DHT22;48397;53.016;-2.260;2023-05-07T01:36:03;13.50;99.90
44671;DHT22;48397;53.016;-2.260;2023-05-07T01:38:34;13.50;99.90
44671;DHT22;48397;53.016;-2.260;2023-05-07T01:41:04;13.50;99.90
44671;DHT22;48397;53.016;-2.260;2023-05-07T01:43:32;13.50;99.90
44671;DHT22;48397;53.016;-2.260;2023-05-07T01:46:01;13.50;99.90
44671;DHT22;48397;53.016;-2.260;2023-05-07T01:48:30;13.50;99.90
44671;DHT22;48397;53.016;-2.260;2023-05-07T01:50:59;13.50;99.90
44671;DHT22;48397;53.016;-2.260;2023-05-07T01:53:28;13.40;99.90
44671;DHT22;48397;53.016;-2.260;2023-05-07T01:55:56;13.40;99.90
44671;DHT22;48397;53.016;-2.260;2023-05-07T01:58:25;13.40;99.90
44671;DHT22;48397;53.016;-2.260;2023-05-07T02:00:53;13.40;99.90
44671;DHT22;48397;53.016;-2.260;2023-05-07T02:03:22;13.40;99.90
44671;DHT22;48397;53.016;-2.260;2023-05-07T02:05:58;13.40;99.90
44671;DHT22;48397;53.016;-2.260;2023-05-07T02:08:44;13.40;99.90
44671;DHT22;48397;53.016;-2.260;2023-05-07T02:11:13;13.40;99.90
44671;DHT22;48397;53.016;-2.260;2023-05-07T02:13:41;13.40;99.90
44671;DHT22;48397;53.016;-2.260;2023-05-07T02:16:09;13.40;99.90
44671;DHT22;48397;53.016;-2.260;2023-05-07T02:18:39;13.40;99.90
44671;DHT22;48397;53.016;-2.260;2023-05-07T02:21:07;13.40;99.90
44671;DHT22;48397;53.016;-2.260;2023-05-07T02:23:35;13.30;99.90
44671;DHT22;48397;53.016;-2.260;2023-05-07T02:26:03;13.30;99.90
44671;DHT22;48397;53.016;-2.260;2023-05-07T02:28:31;13.30;99.90
44671;DHT22;48397;53.016;-2.260;2023-05-07T02:31:05;13.40;99.90
44671;DHT22;48397;53.016;-2.260;2023-05-07T02:33:33;13.40;99.90
44671;DHT22;48397;53.016;-2.260;2023-05-07T02:36:11;13.40;99.90
44671;DHT22;48397;53.016;-2.260;2023-05-07T02:40:56;13.30;99.90
44671;DHT22;48397;53.016;-2.260;2023-05-07T02:43:25;13.30;99.90
44671;DHT22;48397;53.016;-2.260;2023-05-07T02:46:03;13.30;99.90
44671;DHT22;48397;53.016;-2.260;2023-05-07T02:48:33;13.40;99.90
44671;DHT22;48397;53.016;-2.260;2023-05-07T02:53:31;13.40;99.90
44671;DHT22;48397;53.016;-2.260;2023-05-07T02:56:00;13.40;99.90
44671;DHT22;48397;53.016;-2.260;2023-05-07T02:58:28;13.30;99.90
44671;DHT22;48397;53.016;-2.260;2023-05-07T03:00:59;13.40;99.90
44671;DHT22;48397;53.016;-2.260;2023-05-07T03:03:39;13.40;99.90
44671;DHT22;48397;53.016;-2.260;2023-05-07T03:06:08;13.30;99.90
44671;DHT22;48397;53.016;-2.260;2023-05-07T03:11:04;13.20;99.90
44671;DHT22;48397;53.016;-2.260;2023-05-07T03:13:32;13.20;99.90
44671;DHT22;48397;53.016;-2.260;2023-05-07T03:16:00;13.20;99.90
44671;DHT22;48397;53.016;-2.260;2023-05-07T03:18:28;13.20;99.90
44671;DHT22;48397;53.016;-2.260;2023-05-07T03:20:55;13.20;99.90
44671;DHT22;48397;53.016;-2.260;2023-05-07T03:23:23;13.10;99.90
44671;DHT22;48397;53.016;-2.260;2023-05-07T03:25:52;13.10;99.90
44671;DHT22;48397;53.016;-2.260;2023-05-07T03:28:20;13.10;99.90
44671;DHT22;48397;53.016;-2.260;2023-05-07T03:30:53;13.00;99.90
44671;DHT22;48397;53.016;-2.260;2023-05-07T03:33:20;12.90;99.90
44671;DHT22;48397;53.016;-2.260;2023-05-07T03:35:49;12.90;99.90
44671;DHT22;48397;53.016;-2.260;2023-05-07T03:38:21;12.90;99.90
44671;DHT22;48397;53.016;-2.260;2023-05-07T03:40:49;12.80;99.90
44671;DHT22;48397;53.016;-2.260;2023-05-07T03:43:17;12.80;99.90
44671;DHT22;48397;53.016;-2.260;2023-05-07T03:45:50;12.70;99.90
44671;DHT22;48397;53.016;-2.260;2023-05-07T03:48:25;12.70;99.90
44671;DHT22;48397;53.016;-2.260;2023-05-07T03:50:57;12.70;99.90
44671;DHT22;48397;53.016;-2.260;2023-05-07T03:53:28;12.60;99.90
44671;DHT22;48397;53.016;-2.260;2023-05-07T03:55:56;15.70;99.90
44671;DHT22;48397;53.016;-2.260;2023-05-07T03:58:24;12.60;99.90
44671;DHT22;48397;53.016;-2.260;2023-05-07T04:00:56;12.60;99.90
44671;DHT22;48397;53.016;-2.260;2023-05-07T04:03:27;12.50;99.90
44671;DHT22;48397;53.016;-2.260;2023-05-07T04:05:59;12.50;99.90
44671;DHT22;48397;53.016;-2.260;2023-05-07T04:08:27;12.50;99.90
44671;DHT22;48397;53.016;-2.260;2023-05-07T04:10:56;12.40;99.90
44671;DHT22;48397;53.016;-2.260;2023-05-07T04:13:25;12.50;99.90
44671;DHT22;48397;53.016;-2.260;2023-05-07T04:15:55;12.50;99.90
44671;DHT22;48397;53.016;-2.260;2023-05-07T04:18:24;12.40;99.90
44671;DHT22;48397;53.016;-2.260;2023-05-07T04:20:52;12.40;99.90
44671;DHT22;48397;53.016;-2.260;2023-05-07T04:23:21;12.30;99.90
44671;DHT22;48397;53.016;-2.260;2023-05-07T04:25:50;12.40;99.90
44671;DHT22;48397;53.016;-2.260;2023-05-07T04:28:30;12.40;99.90
44671;DHT22;48397;53.016;-2.260;2023-05-07T04:30:59;12.40;99.90
44671;DHT22;48397;53.016;-2.260;2023-05-07T04:33:28;12.30;99.90
44671;DHT22;48397;53.016;-2.260;2023-05-07T04:36:01;12.30;99.90
44671;DHT22;48397;53.016;-2.260;2023-05-07T04:38:32;12.30;99.90
44671;DHT22;48397;53.016;-2.260;2023-05-07T04:41:04;12.30;99.90
44671;DHT22;48397;53.016;-2.260;2023-05-07T04:43:37;12.30;99.90
44671;DHT22;48397;53.016;-2.260;2023-05-07T04:46:05;12.10;99.90
44671;DHT22;48397;53.016;-2.260;2023-05-07T04:48:33;12.30;99.90
44671;DHT22;48397;53.016;-2.260;2023-05-07T04:51:04;12.30;99.90
44671;DHT22;48397;53.016;-2.260;2023-05-07T04:53:32;12.30;99.90
44671;DHT22;48397;53.016;-2.260;2023-05-07T04:56:00;8.90;99.90
44671;DHT22;48397;53.016;-2.260;2023-05-07T04:58:36;12.30;99.90
44671;DHT22;48397;53.016;-2.260;2023-05-07T05:01:04;12.30;99.90
44671;DHT22;48397;53.016;-2.260;2023-05-07T05:03:32;12.30;99.90
44671;DHT22;48397;53.016;-2.260;2023-05-07T05:06:00;12.30;99.90
44671;DHT22;48397;53.016;-2.260;2023-05-07T05:08:32;12.30;99.90
44671;DHT22;48397;53.016;-2.260;2023-05-07T05:11:02;12.40;99.90
44671;DHT22;48397;53.016;-2.260;2023-05-07T05:13:32;12.40;99.90
44671;DHT22;48397;53.016;-2.260;2023-05-07T05:16:03;12.40;99.90
44671;DHT22;48397;53.016;-2.260;2023-05-07T05:18:32;12.40;99.90
44671;DHT22;48397;53.016;-2.260;2023-05-07T05:21:00;12.40;99.90
44671;DHT22;48397;53.016;-2.260;2023-05-07T05:23:29;12.40;99.90
44671;DHT22;48397;53.016;-2.260;2023-05-07T05:25:57;12.40;99.90
44671;DHT22;48397;53.016;-2.260;2023-05-07T05:28:27;12.40;99.90
44671;DHT22;48397;53.016;-2.260;2023-05-07T05:30:55;12.50;99.90
44671;DHT22;48397;53.016;-2.260;2023-05-07T05:33:25;12.50;99.90
44671;DHT22;48397;53.016;-2.260;2023-05-07T05:35:56;12.50;99.90
44671;DHT22;48397;53.016;-2.260;2023-05-07T05:38:23;12.50;99.90
44671;DHT22;48397;53.016;-2.260;2023-05-07T05:40:51;12.50;99.90
44671;DHT22;48397;53.016;-2.260;2023-05-07T05:43:22;12.50;99.90
44671;DHT22;48397;53.016;-2.260;2023-05-07T05:45:50;12.60;99.90
44671;DHT22;48397;53.016;-2.260;2023-05-07T05:48:18;12.70;99.90
44671;DHT22;48397;53.016;-2.260;2023-05-07T05:50:47;12.70;99.90
44671;DHT22;48397;53.016;-2.260;2023-05-07T05:53:16;12.80;99.90
44671;DHT22;48397;53.016;-2.260;2023-05-07T05:55:43;12.70;99.90
44671;DHT22;48397;53.016;-2.260;2023-05-07T05:58:12;12.80;99.90
44671;DHT22;48397;53.016;-2.260;2023-05-07T06:00:45;12.80;99.90
44671;DHT22;48397;53.016;-2.260;2023-05-07T06:03:13;12.90;99.90
44671;DHT22;48397;53.016;-2.260;2023-05-07T06:05:42;13.00;99.90
44671;DHT22;48397;53.016;-2.260;2023-05-07T06:08:10;13.00;99.90
44671;DHT22;48397;53.016;-2.260;2023-05-07T06:10:38;13.10;99.90
44671;DHT22;48397;53.016;-2.260;2023-05-07T06:13:07;13.00;99.90
44671;DHT22;48397;53.016;-2.260;2023-05-07T06:15:37;13.20;99.90
44671;DHT22;48397;53.016;-2.260;2023-05-07T06:18:09;13.20;99.90
44671;DHT22;48397;53.016;-2.260;2023-05-07T06:20:37;13.30;99.90
44671;DHT22;48397;53.016;-2.260;2023-05-07T06:23:10;13.20;99.90
44671;DHT22;48397;53.016;-2.260;2023-05-07T06:25:38;13.10;99.90
44671;DHT22;48397;53.016;-2.260;2023-05-07T06:28:07;13.10;99.90
44671;DHT22;48397;53.016;-2.260;2023-05-07T06:30:40;13.10;99.90
44671;DHT22;48397;53.016;-2.260;2023-05-07T06:33:08;13.10;99.90
44671;DHT22;48397;53.016;-2.260;2023-05-07T06:35:35;13.00;99.90
44671;DHT22;48397;53.016;-2.260;2023-05-07T06:38:03;12.90;99.90
44671;DHT22;48397;53.016;-2.260;2023-05-07T06:40:31;12.90;99.90
44671;DHT22;48397;53.016;-2.260;2023-05-07T06:43:00;12.90;99.90
44671;DHT22;48397;53.016;-2.260;2023-05-07T06:45:48;12.90;99.90
44671;DHT22;48397;53.016;-2.260;2023-05-07T06:48:16;12.90;99.90
44671;DHT22;48397;53.016;-2.260;2023-05-07T06:50:51;13.00;99.90
44671;DHT22;48397;53.016;-2.260;2023-05-07T06:55:47;12.90;99.90
44671;DHT22;48397;53.016;-2.260;2023-05-07T06:58:18;13.00;99.90
44671;DHT22;48397;53.016;-2.260;2023-05-07T07:00:46;13.00;99.90
44671;DHT22;48397;53.016;-2.260;2023-05-07T07:03:14;12.90;99.90
44671;DHT22;48397;53.016;-2.260;2023-05-07T07:05:42;13.00;99.90
44671;DHT22;48397;53.016;-2.260;2023-05-07T07:08:10;13.10;99.90
44671;DHT22;48397;53.016;-2.260;2023-05-07T07:10:37;13.00;99.90
44671;DHT22;48397;53.016;-2.260;2023-05-07T07:13:06;13.00;99.90
44671;DHT22;48397;53.016;-2.260;2023-05-07T07:15:33;13.00;99.90
44671;DHT22;48397;53.016;-2.260;2023-05-07T07:18:01;12.90;99.90
44671;DHT22;48397;53.016;-2.260;2023-05-07T07:20:29;12.80;99.90
44671;DHT22;48397;53.016;-2.260;2023-05-07T07:22:58;12.80;99.90
44671;DHT22;48397;53.016;-2.260;2023-05-07T07:25:25;12.80;99.90
44671;DHT22;48397;53.016;-2.260;2023-05-07T07:27:54;12.80;99.90
44671;DHT22;48397;53.016;-2.260;2023-05-07T07:30:23;12.80;99.90
44671;DHT22;48397;53.016;-2.260;2023-05-07T07:32:51;12.80;99.90
44671;DHT22;48397;53.016;-2.260;2023-05-07T07:35:21;12.80;99.90
44671;DHT22;48397;53.016;-2.260;2023-05-07T07:37:52;13.00;99.90
44671;DHT22;48397;53.016;-2.260;2023-05-07T07:40:20;13.10;99.90
44671;DHT22;48397;53.016;-2.260;2023-05-07T07:42:48;13.20;99.90
44671;DHT22;48397;53.016;-2.260;2023-05-07T07:45:16;13.20;99.90
44671;DHT22;48397;53.016;-2.260;2023-05-07T07:47:47;13.40;99.90
44671;DHT22;48397;53.016;-2.260;2023-05-07T07:50:15;13.40;99.90
44671;DHT22;48397;53.016;-2.260;2023-05-07T07:53:02;13.50;99.90
44671;DHT22;48397;53.016;-2.260;2023-05-07T07:55:31;13.70;99.90
44671;DHT22;48397;53.016;-2.260;2023-05-07T07:58:00;13.70;99.90
44671;DHT22;48397;53.016;-2.260;2023-05-07T08:00:28;13.90;99.90
44671;DHT22;48397;53.016;-2.260;2023-05-07T08:02:57;13.90;99.90
44671;DHT22;48397;53.016;-2.260;2023-05-07T08:05:29;14.10;99.90
44671;DHT22;48397;53.016;-2.260;2023-05-07T08:07:59;14.10;99.90
44671;DHT22;48397;53.016;-2.260;2023-05-07T08:10:31;14.10;99.90
44671;DHT22;48397;53.016;-2.260;2023-05-07T08:13:07;14.20;99.90
44671;DHT22;48397;53.016;-2.260;2023-05-07T08:15:38;14.10;99.90
44671;DHT22;48397;53.016;-2.260;2023-05-07T08:18:06;14.10;99.90
44671;DHT22;48397;53.016;-2.260;2023-05-07T08:20:34;14.20;99.90
44671;DHT22;48397;53.016;-2.260;2023-05-07T08:23:09;14.20;99.90
44671;DHT22;48397;53.016;-2.260;2023-05-07T08:25:40;14.20;99.90
44671;DHT22;48397;53.016;-2.260;2023-05-07T08:28:09;14.20;99.90
44671;DHT22;48397;53.016;-2.260;2023-05-07T08:30:39;14.30;99.90
44671;DHT22;48397;53.016;-2.260;2023-05-07T08:33:08;14.40;99.90
44671;DHT22;48397;53.016;-2.260;2023-05-07T08:35:38;14.40;99.90
44671;DHT22;48397;53.016;-2.260;2023-05-07T08:38:08;14.40;99.90
44671;DHT22;48397;53.016;-2.260;2023-05-07T08:40:39;14.40;99.90
44671;DHT22;48397;53.016;-2.260;2023-05-07T08:43:14;14.70;99.90
44671;DHT22;48397;53.016;-2.260;2023-05-07T08:45:45;14.70;99.90
44671;DHT22;48397;53.016;-2.260;2023-05-07T08:48:16;15.00;99.90
44671;DHT22;48397;53.016;-2.260;2023-05-07T08:50:53;15.00;99.90
44671;DHT22;48397;53.016;-2.260;2023-05-07T08:53:21;15.20;99.90
44671;DHT22;48397;53.016;-2.260;2023-05-07T08:55:53;15.20;99.90
44671;DHT22;48397;53.016;-2.260;2023-05-07T08:58:20;15.20;99.90
44671;DHT22;48397;53.016;-2.260;2023-05-07T09:00:50;15.10;99.90
44671;DHT22;48397;53.016;-2.260;2023-05-07T09:03:21;15.10;99.90
44671;DHT22;48397;53.016;-2.260;2023-05-07T09:05:53;15.20;99.90
44671;DHT22;48397;53.016;-2.260;2023-05-07T09:08:25;15.20;99.90
44671;DHT22;48397;53.016;-2.260;2023-05-07T09:10:54;15.30;99.90
44671;DHT22;48397;53.016;-2.260;2023-05-07T09:13:23;15.50;99.90
44671;DHT22;48397;53.016;-2.260;2023-05-07T09:15:51;12.80;99.90
44671;DHT22;48397;53.016;-2.260;2023-05-07T09:18:20;15.60;99.90
44671;DHT22;48397;53.016;-2.260;2023-05-07T09:20:49;15.60;99.90
44671;DHT22;48397;53.016;-2.260;2023-05-07T09:23:20;15.80;99.90
44671;DHT22;48397;53.016;-2.260;2023-05-07T09:25:48;15.90;99.90
44671;DHT22;48397;53.016;-2.260;2023-05-07T09:28:26;15.90;99.90
44671;DHT22;48397;53.016;-2.260;2023-05-07T09:30:55;15.90;99.90
44671;DHT22;48397;53.016;-2.260;2023-05-07T09:33:26;16.00;99.90
44671;DHT22;48397;53.016;-2.260;2023-05-07T09:35:57;16.40;99.90
44671;DHT22;48397;53.016;-2.260;2023-05-07T09:38:25;16.50;99.90
44671;DHT22;48397;53.016;-2.260;2023-05-07T09:41:11;16.60;99.90
44671;DHT22;48397;53.016;-2.260;2023-05-07T09:43:53;16.60;99.90
44671;DHT22;48397;53.016;-2.260;2023-05-07T09:46:30;16.70;99.90
44671;DHT22;48397;53.016;-2.260;2023-05-07T09:49:16;16.70;99.90
44671;DHT22;48397;53.016;-2.260;2023-05-07T09:51:51;16.80;99.90
44671;DHT22;48397;53.016;-2.260;2023-05-07T09:54:23;16.80;99.90
44671;DHT22;48397;53.016;-2.260;2023-05-07T09:56:55;16.90;99.90
44671;DHT22;48397;53.016;-2.260;2023-05-07T09:59:27;16.70;99.90
44671;DHT22;48397;53.016;-2.260;2023-05-07T10:01:59;16.60;99.90
44671;DHT22;48397;53.016;-2.260;2023-05-07T10:04:34;16.50;99.90
44671;DHT22;48397;53.016;-2.260;2023-05-07T10:07:05;16.70;99.90
44671;DHT22;48397;53.016;-2.260;2023-05-07T10:09:36;16.90;99.90
44671;DHT22;48397;53.016;-2.260;2023-05-07T10:12:13;16.90;99.90
44671;DHT22;48397;53.016;-2.260;2023-05-07T10:14:41;17.20;99.90
44671;DHT22;48397;53.016;-2.260;2023-05-07T10:17:11;17.40;99.90
44671;DHT22;48397;53.016;-2.260;2023-05-07T10:19:44;17.60;99.90
44671;DHT22;48397;53.016;-2.260;2023-05-07T10:22:13;18.30;99.90
44671;DHT22;48397;53.016;-2.260;2023-05-07T10:24:45;18.30;99.90
44671;DHT22;48397;53.016;-2.260;2023-05-07T10:27:17;18.40;99.90
44671;DHT22;48397;53.016;-2.260;2023-05-07T10:33:09;18.20;99.90
44671;DHT22;48397;53.016;-2.260;2023-05-07T10:35:44;18.20;99.90
44671;DHT22;48397;53.016;-2.260;2023-05-07T10:38:14;18.20;99.90
44671;DHT22;48397;53.016;-2.260;2023-05-07T10:40:44;18.20;99.90
44671;DHT22;48397;53.016;-2.260;2023-05-07T10:43:17;18.20;99.90
44671;DHT22;48397;53.016;-2.260;2023-05-07T10:46:19;18.10;99.90
44671;DHT22;48397;53.016;-2.260;2023-05-07T10:49:10;18.10;99.90
44671;DHT22;48397;53.016;-2.260;2023-05-07T10:52:11;18.10;99.90
44671;DHT22;48397;53.016;-2.260;2023-05-07T10:54:46;18.20;99.90
44671;DHT22;48397;53.016;-2.260;2023-05-07T10:57:35;18.20;99.90
44671;DHT22;48397;53.016;-2.260;2023-05-07T11:05:40;18.50;99.90
44671;DHT22;48397;53.016;-2.260;2023-05-07T11:08:18;18.70;99.90
44671;DHT22;48397;53.016;-2.260;2023-05-07T11:10:59;18.90;99.90
44671;DHT22;48397;53.016;-2.260;2023-05-07T11:13:43;19.00;99.90
44671;DHT22;48397;53.016;-2.260;2023-05-07T11:17:02;19.10;99.90
44671;DHT22;48397;53.016;-2.260;2023-05-07T11:20:01;19.10;99.90
44671;DHT22;48397;53.016;-2.260;2023-05-07T11:22:47;19.10;99.90
44671;DHT22;48397;53.016;-2.260;2023-05-07T11:25:31;19.40;99.90
44671;DHT22;48397;53.016;-2.260;2023-05-07T11:28:07;19.90;99.90
44671;DHT22;48397;53.016;-2.260;2023-05-07T11:30:44;19.90;99.90
44671;DHT22;48397;53.016;-2.260;2023-05-07T11:33:17;19.90;99.90
44671;DHT22;48397;53.016;-2.260;2023-05-07T11:35:48;19.90;99.90
44671;DHT22;48397;53.016;-2.260;2023-05-07T11:38:18;19.70;99.90
44671;DHT22;48397;53.016;-2.260;2023-05-07T11:40:54;19.60;99.90
44671;DHT22;48397;53.016;-2.260;2023-05-07T11:43:22;19.60;99.90
44671;DHT22;48397;53.016;-2.260;2023-05-07T11:45:52;19.70;99.90
44671;DHT22;48397;53.016;-2.260;2023-05-07T11:48:21;19.60;99.90
44671;DHT22;48397;53.016;-2.260;2023-05-07T11:50:54;19.60;99.90
44671;DHT22;48397;53.016;-2.260;2023-05-07T11:53:35;19.40;99.90
44671;DHT22;48397;53.016;-2.260;2023-05-07T11:56:14;19.40;99.90
44671;DHT22;48397;53.016;-2.260;2023-05-07T11:58:43;19.30;99.90
44671;DHT22;48397;53.016;-2.260;2023-05-07T12:01:13;19.20;99.90
44671;DHT22;48397;53.016;-2.260;2023-05-07T12:03:42;19.20;99.90
44671;DHT22;48397;53.016;-2.260;2023-05-07T12:06:12;19.30;99.90
44671;DHT22;48397;53.016;-2.260;2023-05-07T12:08:41;19.70;99.90
44671;DHT22;48397;53.016;-2.260;2023-05-07T12:11:30;19.90;99.90
44671;DHT22;48397;53.016;-2.260;2023-05-07T12:13:58;20.00;99.90
44671;DHT22;48397;53.016;-2.260;2023-05-07T12:16:27;20.50;99.90
44671;DHT22;48397;53.016;-2.260;2023-05-07T12:18:55;20.50;99.90
44671;DHT22;48397;53.016;-2.260;2023-05-07T12:21:22;20.50;99.90
44671;DHT22;48397;53.016;-2.260;2023-05-07T12:23:52;20.40;99.90
44671;DHT22;48397;53.016;-2.260;2023-05-07T12:26:20;20.20;99.90
44671;DHT22;48397;53.016;-2.260;2023-05-07T12:28:50;20.00;99.90
44671;DHT22;48397;53.016;-2.260;2023-05-07T12:31:18;20.20;99.90
44671;DHT22;48397;53.016;-2.260;2023-05-07T12:33:46;20.20;99.90
44671;DHT22;48397;53.016;-2.260;2023-05-07T12:36:14;20.60;99.90
44671;DHT22;48397;53.016;-2.260;2023-05-07T12:38:42;21.10;99.90
44671;DHT22;48397;53.016;-2.260;2023-05-07T12:41:10;21.70;99.90
44671;DHT22;48397;53.016;-2.260;2023-05-07T12:43:39;22.30;99.90
44671;DHT22;48397;53.016;-2.260;2023-05-07T12:46:11;22.30;99.90
44671;DHT22;48397;53.016;-2.260;2023-05-07T12:48:46;22.50;99.90
44671;DHT22;48397;53.016;-2.260;2023-05-07T12:51:13;22.60;99.90
44671;DHT22;48397;53.016;-2.260;2023-05-07T12:53:43;22.60;99.90
44671;DHT22;48397;53.016;-2.260;2023-05-07T12:56:11;22.60;99.90
44671;DHT22;48397;53.016;-2.260;2023-05-07T12:58:40;22.60;99.90
44671;DHT22;48397;53.016;-2.260;2023-05-07T13:01:08;22.60;99.90
44671;DHT22;48397;53.016;-2.260;2023-05-07T13:03:38;22.70;99.90
44671;DHT22;48397;53.016;-2.260;2023-05-07T13:06:08;22.90;99.90
44671;DHT22;48397;53.016;-2.260;2023-05-07T13:08:41;22.90;99.90
44671;DHT22;48397;53.016;-2.260;2023-05-07T13:11:12;22.90;99.90
44671;DHT22;48397;53.016;-2.260;2023-05-07T13:13:41;22.80;99.90
44671;DHT22;48397;53.016;-2.260;2023-05-07T13:16:10;22.60;99.90
44671;DHT22;48397;53.016;-2.260;2023-05-07T13:18:40;22.20;99.90
44671;DHT22;48397;53.016;-2.260;2023-05-07T13:21:08;21.90;99.90
44671;DHT22;48397;53.016;-2.260;2023-05-07T13:23:36;21.80;99.90
44671;DHT22;48397;53.016;-2.260;2023-05-07T13:26:06;21.90;99.90
44671;DHT22;48397;53.016;-2.260;2023-05-07T13:28:53;21.80;99.90
44671;DHT22;48397;53.016;-2.260;2023-05-07T13:31:21;21.70;99.90
44671;DHT22;48397;53.016;-2.260;2023-05-07T13:33:49;21.80;99.90
44671;DHT22;48397;53.016;-2.260;2023-05-07T13:36:17;22.20;99.90
44671;DHT22;48397;53.016;-2.260;2023-05-07T13:38:45;22.30;99.90
44671;DHT22;48397;53.016;-2.260;2023-05-07T13:41:14;22.20;99.90
44671;DHT22;48397;53.016;-2.260;2023-05-07T13:43:42;22.20;99.90
44671;DHT22;48397;53.016;-2.260;2023-05-07T13:46:10;22.40;99.90
44671;DHT22;48397;53.016;-2.260;2023-05-07T13:48:41;22.80;99.90
44671;DHT22;48397;53.016;-2.260;2023-05-07T13:51:09;23.50;99.90
44671;DHT22;48397;53.016;-2.260;2023-05-07T13:53:38;24.10;99.90
44671;DHT22;48397;53.016;-2.260;2023-05-07T13:56:06;24.40;99.90
44671;DHT22;48397;53.016;-2.260;2023-05-07T13:58:34;24.20;99.90
44671;DHT22;48397;53.016;-2.260;2023-05-07T14:01:14;24.20;99.90
44671;DHT22;48397;53.016;-2.260;2023-05-07T14:03:43;24.60;99.90
44671;DHT22;48397;53.016;-2.260;2023-05-07T14:06:11;24.90;99.90
44671;DHT22;48397;53.016;-2.260;2023-05-07T14:08:39;24.60;99.90
44671;DHT22;48397;53.016;-2.260;2023-05-07T14:11:08;24.30;99.90
44671;DHT22;48397;53.016;-2.260;2023-05-07T14:13:35;24.00;99.90
44671;DHT22;48397;53.016;-2.260;2023-05-07T14:16:04;24.00;99.90
44671;DHT22;48397;53.016;-2.260;2023-05-07T14:18:32;24.40;99.90
44671;DHT22;48397;53.016;-2.260;2023-05-07T14:21:01;25.00;99.90
44671;DHT22;48397;53.016;-2.260;2023-05-07T14:23:30;25.10;99.90
44671;DHT22;48397;53.016;-2.260;2023-05-07T14:25:59;25.20;99.90
44671;DHT22;48397;53.016;-2.260;2023-05-07T14:28:27;25.40;99.90
44671;DHT22;48397;53.016;-2.260;2023-05-07T14:30:55;25.70;99.90
44671;DHT22;48397;53.016;-2.260;2023-05-07T14:33:23;26.10;99.90
44671;DHT22;48397;53.016;-2.260;2023-05-07T14:35:51;26.30;99.90
44671;DHT22;48397;53.016;-2.260;2023-05-07T14:38:21;26.20;99.90
44671;DHT22;48397;53.016;-2.260;2023-05-07T14:40:53;26.00;99.90
44671;DHT22;48397;53.016;-2.260;2023-05-07T14:43:26;26.40;99.90
44671;DHT22;48397;53.016;-2.260;2023-05-07T14:45:54;26.90;99.90
44671;DHT22;48397;53.016;-2.260;2023-05-07T14:48:22;27.70;99.70
44671;DHT22;48397;53.016;-2.260;2023-05-07T14:50:49;27.70;99.80
44671;DHT22;48397;53.016;-2.260;2023-05-07T14:53:19;27.70;97.10
44671;DHT22;48397;53.016;-2.260;2023-05-07T14:55:47;27.70;97.20
44671;DHT22;48397;53.016;-2.260;2023-05-07T14:58:20;27.60;96.60
44671;DHT22;48397;53.016;-2.260;2023-05-07T15:00:50;26.80;95.70
44671;DHT22;48397;53.016;-2.260;2023-05-07T15:03:17;26.50;95.80
44671;DHT22;48397;53.016;-2.260;2023-05-07T15:05:45;26.40;96.00
44671;DHT22;48397;53.016;-2.260;2023-05-07T15:08:14;26.70;96.40
44671;DHT22;48397;53.016;-2.260;2023-05-07T15:10:42;26.90;97.00
44671;DHT22;48397;53.016;-2.260;2023-05-07T15:13:11;26.50;95.80
44671;DHT22;48397;53.016;-2.260;2023-05-07T15:15:44;26.30;95.90
44671;DHT22;48397;53.016;-2.260;2023-05-07T15:18:13;26.30;96.10
44671;DHT22;48397;53.016;-2.260;2023-05-07T15:20:43;27.20;95.70
44671;DHT22;48397;53.016;-2.260;2023-05-07T15:23:11;27.20;95.90
44671;DHT22;48397;53.016;-2.260;2023-05-07T15:25:43;27.70;95.30
44671;DHT22;48397;53.016;-2.260;2023-05-07T15:28:12;27.70;94.10
44671;DHT22;48397;53.016;-2.260;2023-05-07T15:30:40;27.70;93.90
44671;DHT22;48397;53.016;-2.260;2023-05-07T15:33:08;28.00;93.40
44671;DHT22;48397;53.016;-2.260;2023-05-07T15:35:44;28.40;92.70
44671;DHT22;48397;53.016;-2.260;2023-05-07T15:38:16;28.40;91.70
44671;DHT22;48397;53.016;-2.260;2023-05-07T15:50:09;28.60;86.80
44671;DHT22;48397;53.016;-2.260;2023-05-07T15:52:37;27.90;86.60
44671;DHT22;48397;53.016;-2.260;2023-05-07T15:55:08;27.10;88.40
44671;DHT22;48397;53.016;-2.260;2023-05-07T15:57:41;27.00;90.30
44671;DHT22;48397;53.016;-2.260;2023-05-07T16:00:49;27.00;89.10
44671;DHT22;48397;53.016;-2.260;2023-05-07T16:17:11;30.00;87.10
44671;DHT22;48397;53.016;-2.260;2023-05-07T16:19:39;30.50;87.10